< < Back
Terminal Aerodrome Forecast


Current Version              Previous Versions:   1  2  3  4  5  6  7  8  9  

Terminal Aerodrome Forecast

239
FTUS44 KMRX 252320
TAFTYS
TAF
KTYS 252320Z 2600/2624 VRB03KT P6SM SCT250
     FM262000 25008KT P6SM VCTS BKN050CB=

Latest METAR

323
SAUS80 KWBC 261700 RRA
MTRTYS
METAR KTYS 261653Z 23011KT 10SM FEW046 BKN085 BKN200 29/18 A3006 RMK AO2
SLP165 T02940178


USA.gov is the U.S. government's official web portal to all federal, state and local government web resources and services.